sensor_id;sensor_type;location;lat;lon;timestamp;temperature;humidity
55016;DHT22;40919;43.236;21.590;2023-08-06T00:00:45;538.20;2406.40
55016;DHT22;40919;43.236;21.590;2023-08-06T00:03:11;538.20;2406.40
55016;DHT22;40919;43.236;21.590;2023-08-06T00:05:36;538.10;2406.40
55016;DHT22;40919;43.236;21.590;2023-08-06T00:08:02;538.10;2406.40
55016;DHT22;40919;43.236;21.590;2023-08-06T00:10:28;538.20;2406.40
55016;DHT22;40919;43.236;21.590;2023-08-06T00:12:54;538.20;2406.40
55016;DHT22;40919;43.236;21.590;2023-08-06T00:15:20;538.20;2406.40
55016;DHT22;40919;43.236;21.590;2023-08-06T00:17:46;538.30;2406.40
55016;DHT22;40919;43.236;21.590;2023-08-06T00:20:11;538.00;2406.40
55016;DHT22;40919;43.236;21.590;2023-08-06T00:22:38;538.00;2406.40
55016;DHT22;40919;43.236;21.590;2023-08-06T00:25:05;537.90;2406.40
55016;DHT22;40919;43.236;21.590;2023-08-06T00:27:31;537.60;2406.40
55016;DHT22;40919;43.236;21.590;2023-08-06T00:29:58;537.90;2406.40
55016;DHT22;40919;43.236;21.590;2023-08-06T00:32:24;537.90;2406.40
55016;DHT22;40919;43.236;21.590;2023-08-06T00:34:49;537.70;2406.40
55016;DHT22;40919;43.236;21.590;2023-08-06T00:37:18;538.00;2406.40
55016;DHT22;40919;43.236;21.590;2023-08-06T00:39:44;538.00;2406.40
55016;DHT22;40919;43.236;21.590;2023-08-06T00:42:11;537.90;2406.40
55016;DHT22;40919;43.236;21.590;2023-08-06T00:44:38;538.00;2406.40
55016;DHT22;40919;43.236;21.590;2023-08-06T00:47:04;538.00;2406.40
55016;DHT22;40919;43.236;21.590;2023-08-06T00:49:31;538.20;2406.40
55016;DHT22;40919;43.236;21.590;2023-08-06T00:51:57;537.90;2406.40
55016;DHT22;40919;43.236;21.590;2023-08-06T00:54:23;538.00;2406.40
55016;DHT22;40919;43.236;21.590;2023-08-06T00:56:50;538.20;2406.40
55016;DHT22;40919;43.236;21.590;2023-08-06T00:59:16;538.10;2406.40
55016;DHT22;40919;43.236;21.590;2023-08-06T01:01:41;538.00;2406.40
55016;DHT22;40919;43.236;21.590;2023-08-06T01:04:07;538.00;2406.40
55016;DHT22;40919;43.236;21.590;2023-08-06T01:17:23;537.90;2406.40
55016;DHT22;40919;43.236;21.590;2023-08-06T01:19:52;538.00;2406.40
55016;DHT22;40919;43.236;21.590;2023-08-06T01:22:18;537.60;2406.40
55016;DHT22;40919;43.236;21.590;2023-08-06T01:24:47;512.90;2380.80
55016;DHT22;40919;43.236;21.590;2023-08-06T01:27:37;537.90;2406.40
55016;DHT22;40919;43.236;21.590;2023-08-06T01:32:35;538.00;2406.40
55016;DHT22;40919;43.236;21.590;2023-08-06T01:35:04;538.00;2406.40
55016;DHT22;40919;43.236;21.590;2023-08-06T01:37:30;538.10;2406.40
55016;DHT22;40919;43.236;21.590;2023-08-06T01:39:57;538.10;2406.40
55016;DHT22;40919;43.236;21.590;2023-08-06T01:42:22;538.30;2406.40
55016;DHT22;40919;43.236;21.590;2023-08-06T01:44:48;537.90;2406.40
55016;DHT22;40919;43.236;21.590;2023-08-06T01:47:14;538.00;2406.40
55016;DHT22;40919;43.236;21.590;2023-08-06T01:49:40;537.90;2406.40
55016;DHT22;40919;43.236;21.590;2023-08-06T01:52:06;538.00;2406.40
55016;DHT22;40919;43.236;21.590;2023-08-06T01:54:32;538.00;2406.40
55016;DHT22;40919;43.236;21.590;2023-08-06T01:56:57;538.00;2406.40
55016;DHT22;40919;43.236;21.590;2023-08-06T01:59:24;538.20;2406.40
55016;DHT22;40919;43.236;21.590;2023-08-06T02:01:49;538.10;2406.40
55016;DHT22;40919;43.236;21.590;2023-08-06T02:04:15;538.00;2406.40
55016;DHT22;40919;43.236;21.590;2023-08-06T02:06:41;538.00;2406.40
55016;DHT22;40919;43.236;21.590;2023-08-06T02:09:07;538.00;2406.40
55016;DHT22;40919;43.236;21.590;2023-08-06T02:11:32;537.90;2406.40
55016;DHT22;40919;43.236;21.590;2023-08-06T02:13:58;537.90;2406.40
55016;DHT22;40919;43.236;21.590;2023-08-06T02:16:24;537.90;2406.40
55016;DHT22;40919;43.236;21.590;2023-08-06T02:18:50;537.90;2406.40
55016;DHT22;40919;43.236;21.590;2023-08-06T02:21:15;537.90;2406.40
55016;DHT22;40919;43.236;21.590;2023-08-06T02:23:41;538.00;2406.40
55016;DHT22;40919;43.236;21.590;2023-08-06T02:26:07;538.00;2406.40
55016;DHT22;40919;43.236;21.590;2023-08-06T02:28:33;537.80;2406.40
55016;DHT22;40919;43.236;21.590;2023-08-06T02:30:58;537.80;2406.40
55016;DHT22;40919;43.236;21.590;2023-08-06T02:33:24;537.90;2406.40
55016;DHT22;40919;43.236;21.590;2023-08-06T02:35:50;537.90;2406.40
55016;DHT22;40919;43.236;21.590;2023-08-06T02:38:16;537.90;2406.40
55016;DHT22;40919;43.236;21.590;2023-08-06T02:40:45;538.00;2406.40
55016;DHT22;40919;43.236;21.590;2023-08-06T02:43:12;537.90;2406.40
55016;DHT22;40919;43.236;21.590;2023-08-06T02:45:38;537.80;2406.40
55016;DHT22;40919;43.236;21.590;2023-08-06T02:48:04;537.80;2406.40
55016;DHT22;40919;43.236;21.590;2023-08-06T02:50:30;537.60;2406.40
55016;DHT22;40919;43.236;21.590;2023-08-06T02:52:56;537.90;2406.40
55016;DHT22;40919;43.236;21.590;2023-08-06T02:55:22;537.90;2406.40
55016;DHT22;40919;43.236;21.590;2023-08-06T02:57:47;537.80;2406.40
55016;DHT22;40919;43.236;21.590;2023-08-06T03:00:13;537.90;2406.40
55016;DHT22;40919;43.236;21.590;2023-08-06T03:02:39;537.90;2406.40
55016;DHT22;40919;43.236;21.590;2023-08-06T03:05:05;537.80;2406.40
55016;DHT22;40919;43.236;21.590;2023-08-06T03:07:31;537.80;2406.40
55016;DHT22;40919;43.236;21.590;2023-08-06T03:09:59;537.90;2406.40
55016;DHT22;40919;43.236;21.590;2023-08-06T03:12:27;537.90;2406.40
55016;DHT22;40919;43.236;21.590;2023-08-06T03:14:53;538.00;2406.40
55016;DHT22;40919;43.236;21.590;2023-08-06T03:17:19;538.10;2406.40
55016;DHT22;40919;43.236;21.590;2023-08-06T03:19:44;538.10;2406.40
55016;DHT22;40919;43.236;21.590;2023-08-06T03:22:10;537.90;2406.40
55016;DHT22;40919;43.236;21.590;2023-08-06T03:24:36;537.80;2406.40
55016;DHT22;40919;43.236;21.590;2023-08-06T03:27:02;537.60;2406.40
55016;DHT22;40919;43.236;21.590;2023-08-06T03:29:27;537.70;2406.40
55016;DHT22;40919;43.236;21.590;2023-08-06T03:31:53;512.90;2380.80
55016;DHT22;40919;43.236;21.590;2023-08-06T03:34:19;512.80;2380.80
55016;DHT22;40919;43.236;21.590;2023-08-06T03:36:45;512.90;2380.80
55016;DHT22;40919;43.236;21.590;2023-08-06T03:39:10;537.60;2406.40
55016;DHT22;40919;43.236;21.590;2023-08-06T03:41:36;537.70;2406.40
55016;DHT22;40919;43.236;21.590;2023-08-06T03:44:02;537.80;2406.40
55016;DHT22;40919;43.236;21.590;2023-08-06T03:46:29;537.80;2406.40
55016;DHT22;40919;43.236;21.590;2023-08-06T03:49:02;537.80;2406.40
55016;DHT22;40919;43.236;21.590;2023-08-06T03:51:28;537.90;2406.40
55016;DHT22;40919;43.236;21.590;2023-08-06T03:53:54;538.00;2406.40
55016;DHT22;40919;43.236;21.590;2023-08-06T03:56:19;537.80;2406.40
55016;DHT22;40919;43.236;21.590;2023-08-06T03:58:45;537.90;2406.40
55016;DHT22;40919;43.236;21.590;2023-08-06T04:01:11;537.90;2406.40
55016;DHT22;40919;43.236;21.590;2023-08-06T04:03:37;538.00;2406.40
55016;DHT22;40919;43.236;21.590;2023-08-06T04:06:03;538.00;2406.40
55016;DHT22;40919;43.236;21.590;2023-08-06T04:08:29;538.00;2406.40
55016;DHT22;40919;43.236;21.590;2023-08-06T04:10:55;538.00;2406.40
55016;DHT22;40919;43.236;21.590;2023-08-06T04:13:21;537.80;2406.40
55016;DHT22;40919;43.236;21.590;2023-08-06T04:15:47;537.60;2406.40
55016;DHT22;40919;43.236;21.590;2023-08-06T04:18:13;512.90;2380.80
55016;DHT22;40919;43.236;21.590;2023-08-06T04:20:46;512.90;2380.80
55016;DHT22;40919;43.236;21.590;2023-08-06T04:23:12;512.60;2380.80
55016;DHT22;40919;43.236;21.590;2023-08-06T04:25:38;512.40;2380.80
55016;DHT22;40919;43.236;21.590;2023-08-06T04:28:04;512.30;2380.80
55016;DHT22;40919;43.236;21.590;2023-08-06T04:30:30;512.50;2380.80
55016;DHT22;40919;43.236;21.590;2023-08-06T04:32:59;512.70;2380.80
55016;DHT22;40919;43.236;21.590;2023-08-06T04:35:25;512.90;2380.80
55016;DHT22;40919;43.236;21.590;2023-08-06T04:37:51;512.90;2380.80
55016;DHT22;40919;43.236;21.590;2023-08-06T04:40:17;512.90;2380.80
55016;DHT22;40919;43.236;21.590;2023-08-06T04:42:42;512.80;2380.80
55016;DHT22;40919;43.236;21.590;2023-08-06T04:45:08;512.80;2380.80
55016;DHT22;40919;43.236;21.590;2023-08-06T04:47:34;512.90;2380.80
55016;DHT22;40919;43.236;21.590;2023-08-06T04:50:00;512.90;2380.80
55016;DHT22;40919;43.236;21.590;2023-08-06T04:52:26;512.90;2380.80
55016;DHT22;40919;43.236;21.590;2023-08-06T04:54:54;512.90;2380.80
55016;DHT22;40919;43.236;21.590;2023-08-06T04:57:20;512.90;2380.80
55016;DHT22;40919;43.236;21.590;2023-08-06T04:59:46;512.90;2380.80
55016;DHT22;40919;43.236;21.590;2023-08-06T05:02:12;512.90;2380.80
55016;DHT22;40919;43.236;21.590;2023-08-06T05:04:39;512.90;2380.80
55016;DHT22;40919;43.236;21.590;2023-08-06T05:07:06;512.80;2380.80
55016;DHT22;40919;43.236;21.590;2023-08-06T05:09:32;512.60;2380.80
55016;DHT22;40919;43.236;21.590;2023-08-06T05:12:00;512.70;2380.80
55016;DHT22;40919;43.236;21.590;2023-08-06T05:14:26;512.80;2380.80
55016;DHT22;40919;43.236;21.590;2023-08-06T05:16:51;512.80;2380.80
55016;DHT22;40919;43.236;21.590;2023-08-06T05:19:17;512.90;2380.80
55016;DHT22;40919;43.236;21.590;2023-08-06T05:21:43;512.90;2380.80
55016;DHT22;40919;43.236;21.590;2023-08-06T05:24:08;537.60;2406.40
55016;DHT22;40919;43.236;21.590;2023-08-06T05:26:34;537.60;2406.40
55016;DHT22;40919;43.236;21.590;2023-08-06T05:29:00;512.90;2380.80
55016;DHT22;40919;43.236;21.590;2023-08-06T05:31:26;537.80;2406.40
55016;DHT22;40919;43.236;21.590;2023-08-06T05:33:54;537.70;2406.40
55016;DHT22;40919;43.236;21.590;2023-08-06T05:36:20;537.80;2406.40
55016;DHT22;40919;43.236;21.590;2023-08-06T05:38:46;537.80;2406.40
55016;DHT22;40919;43.236;21.590;2023-08-06T05:41:12;537.90;2406.40
55016;DHT22;40919;43.236;21.590;2023-08-06T05:43:39;538.00;2406.40
55016;DHT22;40919;43.236;21.590;2023-08-06T05:46:04;538.00;2406.40
55016;DHT22;40919;43.236;21.590;2023-08-06T05:48:30;537.90;2406.40
55016;DHT22;40919;43.236;21.590;2023-08-06T05:50:57;537.80;2406.40
55016;DHT22;40919;43.236;21.590;2023-08-06T05:53:24;537.80;2406.40
55016;DHT22;40919;43.236;21.590;2023-08-06T05:55:50;537.80;2406.40
55016;DHT22;40919;43.236;21.590;2023-08-06T05:58:16;512.90;2380.80
55016;DHT22;40919;43.236;21.590;2023-08-06T06:00:42;512.90;2380.80
55016;DHT22;40919;43.236;21.590;2023-08-06T06:03:07;512.90;2380.80
55016;DHT22;40919;43.236;21.590;2023-08-06T06:05:33;537.60;2406.40
55016;DHT22;40919;43.236;21.590;2023-08-06T06:07:59;537.60;2406.40
55016;DHT22;40919;43.236;21.590;2023-08-06T06:10:25;537.60;2406.40
55016;DHT22;40919;43.236;21.590;2023-08-06T06:12:51;537.60;2406.40
55016;DHT22;40919;43.236;21.590;2023-08-06T06:15:16;537.60;2406.40
55016;DHT22;40919;43.236;21.590;2023-08-06T06:17:42;512.90;2380.80
55016;DHT22;40919;43.236;21.590;2023-08-06T06:20:08;512.90;2380.80
55016;DHT22;40919;43.236;21.590;2023-08-06T06:22:34;537.60;2406.40
55016;DHT22;40919;43.236;21.590;2023-08-06T06:25:00;537.60;2406.40
55016;DHT22;40919;43.236;21.590;2023-08-06T06:27:25;537.80;2406.40
55016;DHT22;40919;43.236;21.590;2023-08-06T06:29:51;538.10;2406.40
55016;DHT22;40919;43.236;21.590;2023-08-06T06:32:18;538.10;2406.40
55016;DHT22;40919;43.236;21.590;2023-08-06T06:34:43;538.20;2406.40
55016;DHT22;40919;43.236;21.590;2023-08-06T06:37:09;538.10;2406.40
55016;DHT22;40919;43.236;21.590;2023-08-06T06:39:35;538.10;2406.40
55016;DHT22;40919;43.236;21.590;2023-08-06T06:42:01;538.10;2406.40
55016;DHT22;40919;43.236;21.590;2023-08-06T06:44:26;538.40;2406.40
55016;DHT22;40919;43.236;21.590;2023-08-06T06:46:52;538.50;2406.40
55016;DHT22;40919;43.236;21.590;2023-08-06T06:49:18;563.30;2432.00
55016;DHT22;40919;43.236;21.590;2023-08-06T06:51:44;563.40;2432.00
55016;DHT22;40919;43.236;21.590;2023-08-06T06:54:09;563.60;2432.00
55016;DHT22;40919;43.236;21.590;2023-08-06T06:56:35;563.60;2432.00
55016;DHT22;40919;43.236;21.590;2023-08-06T06:59:01;563.70;2432.00
55016;DHT22;40919;43.236;21.590;2023-08-06T07:01:27;563.80;2432.00
55016;DHT22;40919;43.236;21.590;2023-08-06T07:03:52;563.80;2432.00
55016;DHT22;40919;43.236;21.590;2023-08-06T07:06:18;563.80;2432.00
55016;DHT22;40919;43.236;21.590;2023-08-06T07:08:45;563.80;2432.00
55016;DHT22;40919;43.236;21.590;2023-08-06T07:11:11;563.90;2432.00
55016;DHT22;40919;43.236;21.590;2023-08-06T07:13:37;564.00;2432.00
55016;DHT22;40919;43.236;21.590;2023-08-06T07:16:02;564.10;2432.00
55016;DHT22;40919;43.236;21.590;2023-08-06T07:18:29;588.80;2432.00
55016;DHT22;40919;43.236;21.590;2023-08-06T07:20:55;589.10;2432.00
55016;DHT22;40919;43.236;21.590;2023-08-06T07:23:21;589.40;2432.00
55016;DHT22;40919;43.236;21.590;2023-08-06T07:25:48;589.40;2432.00
55016;DHT22;40919;43.236;21.590;2023-08-06T07:28:14;589.30;2432.00
55016;DHT22;40919;43.236;21.590;2023-08-06T07:30:40;589.10;2432.00
55016;DHT22;40919;43.236;21.590;2023-08-06T07:33:06;589.00;2432.00
55016;DHT22;40919;43.236;21.590;2023-08-06T07:35:33;589.10;2432.00
55016;DHT22;40919;43.236;21.590;2023-08-06T07:37:59;589.00;2432.00
55016;DHT22;40919;43.236;21.590;2023-08-06T07:40:25;588.90;2432.00
55016;DHT22;40919;43.236;21.590;2023-08-06T07:42:50;589.00;2432.00
55016;DHT22;40919;43.236;21.590;2023-08-06T07:45:19;588.90;2432.00
55016;DHT22;40919;43.236;21.590;2023-08-06T07:47:45;589.00;2432.00
55016;DHT22;40919;43.236;21.590;2023-08-06T07:50:10;589.00;2432.00
55016;DHT22;40919;43.236;21.590;2023-08-06T07:52:36;589.20;2432.00
55016;DHT22;40919;43.236;21.590;2023-08-06T07:55:02;589.40;2432.00
55016;DHT22;40919;43.236;21.590;2023-08-06T07:57:33;589.50;2432.00
55016;DHT22;40919;43.236;21.590;2023-08-06T08:00:00;589.60;2432.00
55016;DHT22;40919;43.236;21.590;2023-08-06T08:02:27;589.70;2432.00
55016;DHT22;40919;43.236;21.590;2023-08-06T08:04:52;589.70;2432.00
55016;DHT22;40919;43.236;21.590;2023-08-06T08:07:18;614.50;2432.00
55016;DHT22;40919;43.236;21.590;2023-08-06T08:09:44;614.50;2432.00
55016;DHT22;40919;43.236;21.590;2023-08-06T08:12:10;614.80;2432.00
55016;DHT22;40919;43.236;21.590;2023-08-06T08:14:36;615.00;2432.00
55016;DHT22;40919;43.236;21.590;2023-08-06T08:17:05;615.20;2432.00
55016;DHT22;40919;43.236;21.590;2023-08-06T08:19:34;615.00;2432.00
55016;DHT22;40919;43.236;21.590;2023-08-06T08:22:00;640.00;2432.00
55016;DHT22;40919;43.236;21.590;2023-08-06T08:24:26;640.10;2432.00
55016;DHT22;40919;43.236;21.590;2023-08-06T08:26:53;640.10;2432.00
55016;DHT22;40919;43.236;21.590;2023-08-06T08:29:20;615.30;2432.00
55016;DHT22;40919;43.236;21.590;2023-08-06T08:31:46;615.10;2432.00
55016;DHT22;40919;43.236;21.590;2023-08-06T08:34:15;614.90;2432.00
55016;DHT22;40919;43.236;21.590;2023-08-06T08:36:41;615.00;2432.00
55016;DHT22;40919;43.236;21.590;2023-08-06T08:39:06;615.10;2432.00
55016;DHT22;40919;43.236;21.590;2023-08-06T08:41:33;640.00;2432.00
55016;DHT22;40919;43.236;21.590;2023-08-06T08:43:59;640.00;2432.00
55016;DHT22;40919;43.236;21.590;2023-08-06T08:46:32;640.00;2432.00
55016;DHT22;40919;43.236;21.590;2023-08-06T08:48:59;640.10;2432.00
55016;DHT22;40919;43.236;21.590;2023-08-06T08:51:27;640.20;2432.00
55016;DHT22;40919;43.236;21.590;2023-08-06T08:53:54;640.70;2432.00
55016;DHT22;40919;43.236;21.590;2023-08-06T08:56:22;640.50;2432.00
55016;DHT22;40919;43.236;21.590;2023-08-06T08:58:48;640.90;2432.00
55016;DHT22;40919;43.236;21.590;2023-08-06T09:01:15;640.70;2432.00
55016;DHT22;40919;43.236;21.590;2023-08-06T09:03:43;665.70;2432.00
55016;DHT22;40919;43.236;21.590;2023-08-06T09:06:11;665.80;2432.00
55016;DHT22;40919;43.236;21.590;2023-08-06T09:08:51;665.70;2432.00
55016;DHT22;40919;43.236;21.590;2023-08-06T09:11:19;640.90;2432.00
55016;DHT22;40919;43.236;21.590;2023-08-06T09:13:47;640.50;2432.00
55016;DHT22;40919;43.236;21.590;2023-08-06T09:16:13;640.50;2432.00
55016;DHT22;40919;43.236;21.590;2023-08-06T09:18:39;640.50;2432.00
55016;DHT22;40919;43.236;21.590;2023-08-06T09:21:05;640.60;2432.00
55016;DHT22;40919;43.236;21.590;2023-08-06T09:23:31;640.50;2432.00
55016;DHT22;40919;43.236;21.590;2023-08-06T09:25:59;640.60;2432.00
55016;DHT22;40919;43.236;21.590;2023-08-06T09:28:36;640.50;2432.00
55016;DHT22;40919;43.236;21.590;2023-08-06T09:31:02;640.60;2432.00
55016;DHT22;40919;43.236;21.590;2023-08-06T09:33:29;640.50;2432.00
55016;DHT22;40919;43.236;21.590;2023-08-06T09:35:55;640.80;2432.00
55016;DHT22;40919;43.236;21.590;2023-08-06T09:38:21;640.70;2432.00
55016;DHT22;40919;43.236;21.590;2023-08-06T09:40:47;640.70;2432.00
55016;DHT22;40919;43.236;21.590;2023-08-06T09:43:12;640.70;2432.00
55016;DHT22;40919;43.236;21.590;2023-08-06T09:45:39;640.50;2432.00
55016;DHT22;40919;43.236;21.590;2023-08-06T09:48:07;640.50;2432.00
55016;DHT22;40919;43.236;21.590;2023-08-06T09:50:35;640.50;2432.00
55016;DHT22;40919;43.236;21.590;2023-08-06T09:53:05;640.50;2432.00
55016;DHT22;40919;43.236;21.590;2023-08-06T09:55:32;640.50;2432.00
55016;DHT22;40919;43.236;21.590;2023-08-06T09:57:59;640.40;2432.00
55016;DHT22;40919;43.236;21.590;2023-08-06T10:00:25;640.50;2432.00
55016;DHT22;40919;43.236;21.590;2023-08-06T10:02:53;640.40;2432.00
55016;DHT22;40919;43.236;21.590;2023-08-06T10:05:22;640.40;2432.00
55016;DHT22;40919;43.236;21.590;2023-08-06T10:07:49;640.40;2432.00
55016;DHT22;40919;43.236;21.590;2023-08-06T10:10:19;640.40;2432.00
55016;DHT22;40919;43.236;21.590;2023-08-06T10:12:54;640.40;2432.00
55016;DHT22;40919;43.236;21.590;2023-08-06T10:15:24;640.50;2432.00
55016;DHT22;40919;43.236;21.590;2023-08-06T10:17:52;640.70;2432.00
55016;DHT22;40919;43.236;21.590;2023-08-06T10:20:20;640.90;2432.00
55016;DHT22;40919;43.236;21.590;2023-08-06T10:23:03;665.90;2432.00
55016;DHT22;40919;43.236;21.590;2023-08-06T10:25:40;666.30;2432.00
55016;DHT22;40919;43.236;21.590;2023-08-06T10:28:12;691.20;2432.00
55016;DHT22;40919;43.236;21.590;2023-08-06T10:30:45;691.60;2432.00
55016;DHT22;40919;43.236;21.590;2023-08-06T10:33:11;691.90;2432.00
55016;DHT22;40919;43.236;21.590;2023-08-06T10:35:41;692.00;2432.00
55016;DHT22;40919;43.236;21.590;2023-08-06T10:38:18;691.90;2432.00
55016;DHT22;40919;43.236;21.590;2023-08-06T10:41:01;692.10;2432.00
55016;DHT22;40919;43.236;21.590;2023-08-06T10:43:29;717.10;2432.00
55016;DHT22;40919;43.236;21.590;2023-08-06T10:45:56;717.10;2432.00
55016;DHT22;40919;43.236;21.590;2023-08-06T10:53:25;717.20;2432.00
55016;DHT22;40919;43.236;21.590;2023-08-06T10:55:51;717.20;2432.00
55016;DHT22;40919;43.236;21.590;2023-08-06T10:58:16;717.70;2380.80
55016;DHT22;40919;43.236;21.590;2023-08-06T11:00:42;717.60;2355.20
55016;DHT22;40919;43.236;21.590;2023-08-06T11:03:08;742.40;2355.20
55016;DHT22;40919;43.236;21.590;2023-08-06T11:05:35;742.40;2380.80
55016;DHT22;40919;43.236;21.590;2023-08-06T11:08:01;742.40;2406.40
55016;DHT22;40919;43.236;21.590;2023-08-06T11:10:27;742.70;2432.00
55016;DHT22;40919;43.236;21.590;2023-08-06T11:12:53;742.60;2380.80
55016;DHT22;40919;43.236;21.590;2023-08-06T11:15:20;742.80;2355.20
55016;DHT22;40919;43.236;21.590;2023-08-06T11:17:46;743.00;2329.60
55016;DHT22;40919;43.236;21.590;2023-08-06T11:20:13;743.30;2278.40
55016;DHT22;40919;43.236;21.590;2023-08-06T11:22:38;743.30;2201.60
55016;DHT22;40919;43.236;21.590;2023-08-06T11:25:06;743.10;2201.60
55016;DHT22;40919;43.236;21.590;2023-08-06T11:27:32;743.00;2278.40
55016;DHT22;40919;43.236;21.590;2023-08-06T11:29:58;743.00;2227.20
55016;DHT22;40919;43.236;21.590;2023-08-06T11:32:24;742.80;2252.80
55016;DHT22;40919;43.236;21.590;2023-08-06T11:34:50;743.10;2252.80
55016;DHT22;40919;43.236;21.590;2023-08-06T11:37:16;743.10;2150.40
55016;DHT22;40919;43.236;21.590;2023-08-06T11:39:46;742.80;2201.60
55016;DHT22;40919;43.236;21.590;2023-08-06T11:42:14;742.40;2252.80
55016;DHT22;40919;43.236;21.590;2023-08-06T11:44:41;717.50;2278.40
55016;DHT22;40919;43.236;21.590;2023-08-06T11:47:14;717.40;2329.60
55016;DHT22;40919;43.236;21.590;2023-08-06T11:49:43;717.20;2304.00
55016;DHT22;40919;43.236;21.590;2023-08-06T11:54:45;692.10;2329.60
55016;DHT22;40919;43.236;21.590;2023-08-06T11:57:11;691.90;2355.20
55016;DHT22;40919;43.236;21.590;2023-08-06T11:59:38;691.70;2380.80
55016;DHT22;40919;43.236;21.590;2023-08-06T12:02:05;691.70;2380.80
55016;DHT22;40919;43.236;21.590;2023-08-06T12:04:59;691.50;2380.80
55016;DHT22;40919;43.236;21.590;2023-08-06T12:07:30;691.60;2432.00
55016;DHT22;40919;43.236;21.590;2023-08-06T12:09:56;691.60;2432.00
55016;DHT22;40919;43.236;21.590;2023-08-06T12:12:23;691.40;2432.00
55016;DHT22;40919;43.236;21.590;2023-08-06T12:14:49;691.40;2432.00
55016;DHT22;40919;43.236;21.590;2023-08-06T12:17:15;691.40;2432.00
55016;DHT22;40919;43.236;21.590;2023-08-06T12:19:40;691.40;2432.00
55016;DHT22;40919;43.236;21.590;2023-08-06T12:22:06;691.90;2432.00
55016;DHT22;40919;43.236;21.590;2023-08-06T12:24:32;717.10;2432.00
55016;DHT22;40919;43.236;21.590;2023-08-06T12:26:59;717.20;2432.00
55016;DHT22;40919;43.236;21.590;2023-08-06T12:29:27;742.40;2432.00
55016;DHT22;40919;43.236;21.590;2023-08-06T12:31:53;743.00;2432.00
55016;DHT22;40919;43.236;21.590;2023-08-06T12:34:19;743.00;2329.60
55016;DHT22;40919;43.236;21.590;2023-08-06T12:36:45;743.10;2329.60
55016;DHT22;40919;43.236;21.590;2023-08-06T12:39:11;742.90;2252.80
55016;DHT22;40919;43.236;21.590;2023-08-06T12:41:37;743.30;2329.60
55016;DHT22;40919;43.236;21.590;2023-08-06T12:44:03;743.30;2355.20
55016;DHT22;40919;43.236;21.590;2023-08-06T12:46:28;768.40;2278.40
55016;DHT22;40919;43.236;21.590;2023-08-06T12:48:54;743.10;2227.20
55016;DHT22;40919;43.236;21.590;2023-08-06T12:51:20;743.20;2304.00
55016;DHT22;40919;43.236;21.590;2023-08-06T12:53:46;743.00;2278.40
55016;DHT22;40919;43.236;21.590;2023-08-06T12:56:11;742.90;2304.00
55016;DHT22;40919;43.236;21.590;2023-08-06T12:58:37;742.60;2227.20
55016;DHT22;40919;43.236;21.590;2023-08-06T13:01:05;742.50;2227.20
55016;DHT22;40919;43.236;21.590;2023-08-06T13:03:31;742.50;2278.40
55016;DHT22;40919;43.236;21.590;2023-08-06T13:05:57;742.40;2201.60
55016;DHT22;40919;43.236;21.590;2023-08-06T13:08:23;742.40;2227.20
55016;DHT22;40919;43.236;21.590;2023-08-06T13:10:49;742.40;2252.80
55016;DHT22;40919;43.236;21.590;2023-08-06T13:13:14;742.40;2252.80
55016;DHT22;40919;43.236;21.590;2023-08-06T13:15:40;742.70;2227.20
55016;DHT22;40919;43.236;21.590;2023-08-06T13:18:06;742.80;2201.60
55016;DHT22;40919;43.236;21.590;2023-08-06T13:20:32;742.70;2201.60
55016;DHT22;40919;43.236;21.590;2023-08-06T13:22:58;742.50;2252.80
55016;DHT22;40919;43.236;21.590;2023-08-06T13:25:26;717.60;2227.20
55016;DHT22;40919;43.236;21.590;2023-08-06T13:27:54;717.40;2201.60
55016;DHT22;40919;43.236;21.590;2023-08-06T13:30:20;742.40;2227.20
55016;DHT22;40919;43.236;21.590;2023-08-06T13:32:46;742.50;2227.20
55016;DHT22;40919;43.236;21.590;2023-08-06T13:35:12;742.90;2201.60
55016;DHT22;40919;43.236;21.590;2023-08-06T13:37:37;742.60;2176.00
55016;DHT22;40919;43.236;21.590;2023-08-06T13:40:04;717.70;2150.40
55016;DHT22;40919;43.236;21.590;2023-08-06T13:42:29;717.40;2150.40
55016;DHT22;40919;43.236;21.590;2023-08-06T13:44:57;742.50;2176.00
55016;DHT22;40919;43.236;21.590;2023-08-06T13:47:28;742.40;2201.60
55016;DHT22;40919;43.236;21.590;2023-08-06T13:49:54;742.60;2150.40
55016;DHT22;40919;43.236;21.590;2023-08-06T13:52:20;743.10;2124.80
55016;DHT22;40919;43.236;21.590;2023-08-06T13:54:46;743.10;2124.80
55016;DHT22;40919;43.236;21.590;2023-08-06T13:57:12;742.90;2124.80
55016;DHT22;40919;43.236;21.590;2023-08-06T13:59:38;742.80;2150.40
55016;DHT22;40919;43.236;21.590;2023-08-06T14:02:04;742.90;2124.80
55016;DHT22;40919;43.236;21.590;2023-08-06T14:04:30;742.80;2124.80
55016;DHT22;40919;43.236;21.590;2023-08-06T14:06:56;742.60;2124.80
55016;DHT22;40919;43.236;21.590;2023-08-06T14:09:21;742.40;2124.80
55016;DHT22;40919;43.236;21.590;2023-08-06T14:11:47;742.40;2124.80
55016;DHT22;40919;43.236;21.590;2023-08-06T14:14:13;742.40;2150.40
55016;DHT22;40919;43.236;21.590;2023-08-06T14:16:39;742.40;2150.40
55016;DHT22;40919;43.236;21.590;2023-08-06T14:19:05;717.70;2150.40
55016;DHT22;40919;43.236;21.590;2023-08-06T14:21:30;717.60;2201.60
55016;DHT22;40919;43.236;21.590;2023-08-06T14:23:56;717.50;2278.40
55016;DHT22;40919;43.236;21.590;2023-08-06T14:26:22;717.40;2355.20
55016;DHT22;40919;43.236;21.590;2023-08-06T14:28:48;717.30;2432.00
55016;DHT22;40919;43.236;21.590;2023-08-06T14:31:14;717.10;2432.00
55016;DHT22;40919;43.236;21.590;2023-08-06T14:33:40;716.90;2380.80
55016;DHT22;40919;43.236;21.590;2023-08-06T14:36:06;716.90;2406.40
55016;DHT22;40919;43.236;21.590;2023-08-06T14:38:31;716.90;2329.60
55016;DHT22;40919;43.236;21.590;2023-08-06T14:40:57;716.90;2227.20
55016;DHT22;40919;43.236;21.590;2023-08-06T14:43:24;716.90;2252.80
55016;DHT22;40919;43.236;21.590;2023-08-06T14:45:50;716.80;2278.40
55016;DHT22;40919;43.236;21.590;2023-08-06T14:48:15;716.80;2278.40
55016;DHT22;40919;43.236;21.590;2023-08-06T14:50:41;692.10;2227.20
55016;DHT22;40919;43.236;21.590;2023-08-06T14:53:07;692.00;2227.20